sensor_id;sensor_type;location;lat;lon;timestamp;P1;durP1;ratioP1;P2;durP2;ratioP2
47860;SDS011;33620;52.340;5.984;2022-12-17T00:02:04;66.05;;;31.05;;
47860;SDS011;33620;52.340;5.984;2022-12-17T00:04:59;62.75;;;29.27;;
47860;SDS011;33620;52.340;5.984;2022-12-17T00:07:43;61.97;;;29.83;;
47860;SDS011;33620;52.340;5.984;2022-12-17T00:10:27;70.18;;;31.63;;
47860;SDS011;33620;52.340;5.984;2022-12-17T00:13:18;67.82;;;30.30;;
47860;SDS011;33620;52.340;5.984;2022-12-17T00:16:04;65.60;;;31.00;;
47860;SDS011;33620;52.340;5.984;2022-12-17T00:18:48;61.63;;;27.50;;
47860;SDS011;33620;52.340;5.984;2022-12-17T00:21:32;53.42;;;26.05;;
47860;SDS011;33620;52.340;5.984;2022-12-17T00:24:16;55.13;;;27.67;;
47860;SDS011;33620;52.340;5.984;2022-12-17T00:27:00;52.75;;;25.13;;
47860;SDS011;33620;52.340;5.984;2022-12-17T00:29:44;63.33;;;28.33;;
47860;SDS011;33620;52.340;5.984;2022-12-17T00:32:28;57.65;;;27.55;;
47860;SDS011;33620;52.340;5.984;2022-12-17T00:35:12;58.00;;;28.27;;
47860;SDS011;33620;52.340;5.984;2022-12-17T00:37:56;58.67;;;26.90;;
47860;SDS011;33620;52.340;5.984;2022-12-17T00:40:40;53.92;;;25.42;;
47860;SDS011;33620;52.340;5.984;2022-12-17T00:43:23;61.85;;;29.05;;
47860;SDS011;33620;52.340;5.984;2022-12-17T00:46:07;60.30;;;28.33;;
47860;SDS011;33620;52.340;5.984;2022-12-17T00:48:51;57.53;;;26.80;;
47860;SDS011;33620;52.340;5.984;2022-12-17T00:51:35;57.97;;;27.77;;
47860;SDS011;33620;52.340;5.984;2022-12-17T00:54:19;53.72;;;25.20;;
47860;SDS011;33620;52.340;5.984;2022-12-17T00:57:03;58.78;;;27.17;;
47860;SDS011;33620;52.340;5.984;2022-12-17T00:59:47;54.15;;;25.90;;
47860;SDS011;33620;52.340;5.984;2022-12-17T01:02:31;48.97;;;24.75;;
47860;SDS011;33620;52.340;5.984;2022-12-17T01:05:15;59.63;;;27.60;;
47860;SDS011;33620;52.340;5.984;2022-12-17T01:08:05;60.25;;;27.52;;
47860;SDS011;33620;52.340;5.984;2022-12-17T01:10:52;59.67;;;28.50;;
47860;SDS011;33620;52.340;5.984;2022-12-17T01:13:40;59.67;;;27.02;;
47860;SDS011;33620;52.340;5.984;2022-12-17T01:16:24;55.78;;;26.08;;
47860;SDS011;33620;52.340;5.984;2022-12-17T01:19:08;56.40;;;27.25;;
47860;SDS011;33620;52.340;5.984;2022-12-17T01:21:52;56.50;;;27.50;;
47860;SDS011;33620;52.340;5.984;2022-12-17T01:24:36;56.53;;;28.52;;
47860;SDS011;33620;52.340;5.984;2022-12-17T01:27:20;56.53;;;28.58;;
47860;SDS011;33620;52.340;5.984;2022-12-17T01:30:04;54.65;;;27.80;;
47860;SDS011;33620;52.340;5.984;2022-12-17T01:32:48;56.70;;;27.67;;
47860;SDS011;33620;52.340;5.984;2022-12-17T01:35:32;62.15;;;29.58;;
47860;SDS011;33620;52.340;5.984;2022-12-17T01:38:16;66.50;;;27.58;;
47860;SDS011;33620;52.340;5.984;2022-12-17T01:41:02;62.95;;;29.67;;
47860;SDS011;33620;52.340;5.984;2022-12-17T01:43:47;61.90;;;27.60;;
47860;SDS011;33620;52.340;5.984;2022-12-17T01:46:32;61.60;;;27.70;;
47860;SDS011;33620;52.340;5.984;2022-12-17T01:49:18;64.22;;;28.70;;
47860;SDS011;33620;52.340;5.984;2022-12-17T01:52:04;56.88;;;27.80;;
47860;SDS011;33620;52.340;5.984;2022-12-17T01:54:48;62.75;;;28.45;;
47860;SDS011;33620;52.340;5.984;2022-12-17T01:57:33;57.95;;;27.80;;
47860;SDS011;33620;52.340;5.984;2022-12-17T02:00:17;54.70;;;28.67;;
47860;SDS011;33620;52.340;5.984;2022-12-17T02:03:01;51.78;;;25.85;;
47860;SDS011;33620;52.340;5.984;2022-12-17T02:08:32;60.33;;;28.63;;
47860;SDS011;33620;52.340;5.984;2022-12-17T02:14:22;57.42;;;27.65;;
47860;SDS011;33620;52.340;5.984;2022-12-17T02:17:23;56.97;;;27.45;;
47860;SDS011;33620;52.340;5.984;2022-12-17T02:20:37;56.83;;;29.73;;
47860;SDS011;33620;52.340;5.984;2022-12-17T02:26:43;59.05;;;28.20;;
47860;SDS011;33620;52.340;5.984;2022-12-17T02:29:34;65.93;;;31.48;;
47860;SDS011;33620;52.340;5.984;2022-12-17T02:32:22;52.95;;;27.27;;
47860;SDS011;33620;52.340;5.984;2022-12-17T02:35:17;55.10;;;27.55;;
47860;SDS011;33620;52.340;5.984;2022-12-17T02:38:21;55.85;;;28.98;;
47860;SDS011;33620;52.340;5.984;2022-12-17T02:41:09;64.57;;;30.38;;
47860;SDS011;33620;52.340;5.984;2022-12-17T02:43:59;65.90;;;31.70;;
47860;SDS011;33620;52.340;5.984;2022-12-17T02:46:43;67.88;;;31.70;;
47860;SDS011;33620;52.340;5.984;2022-12-17T02:49:29;59.70;;;30.15;;
47860;SDS011;33620;52.340;5.984;2022-12-17T02:52:14;59.95;;;30.55;;
47860;SDS011;33620;52.340;5.984;2022-12-17T02:55:01;57.25;;;30.33;;
47860;SDS011;33620;52.340;5.984;2022-12-17T02:57:45;64.85;;;30.73;;
47860;SDS011;33620;52.340;5.984;2022-12-17T03:00:29;56.78;;;29.35;;
47860;SDS011;33620;52.340;5.984;2022-12-17T03:03:13;57.05;;;30.58;;
47860;SDS011;33620;52.340;5.984;2022-12-17T03:05:57;62.58;;;30.98;;
47860;SDS011;33620;52.340;5.984;2022-12-17T03:08:41;64.68;;;31.92;;
47860;SDS011;33620;52.340;5.984;2022-12-17T03:11:28;68.65;;;31.70;;
47860;SDS011;33620;52.340;5.984;2022-12-17T03:14:12;66.63;;;33.13;;
47860;SDS011;33620;52.340;5.984;2022-12-17T03:16:57;60.13;;;30.48;;
47860;SDS011;33620;52.340;5.984;2022-12-17T03:19:41;59.50;;;29.85;;
47860;SDS011;33620;52.340;5.984;2022-12-17T03:22:28;61.17;;;30.05;;
47860;SDS011;33620;52.340;5.984;2022-12-17T03:25:12;66.95;;;31.55;;
47860;SDS011;33620;52.340;5.984;2022-12-17T03:28:04;59.67;;;30.58;;
47860;SDS011;33620;52.340;5.984;2022-12-17T03:30:52;61.28;;;32.38;;
47860;SDS011;33620;52.340;5.984;2022-12-17T03:33:36;60.80;;;28.88;;
47860;SDS011;33620;52.340;5.984;2022-12-17T03:36:20;55.30;;;29.15;;
47860;SDS011;33620;52.340;5.984;2022-12-17T03:39:05;63.58;;;31.25;;
47860;SDS011;33620;52.340;5.984;2022-12-17T03:41:48;64.47;;;30.98;;
47860;SDS011;33620;52.340;5.984;2022-12-17T03:44:32;64.15;;;30.38;;
47860;SDS011;33620;52.340;5.984;2022-12-17T03:47:16;64.00;;;30.58;;
47860;SDS011;33620;52.340;5.984;2022-12-17T03:50:00;56.35;;;29.45;;
47860;SDS011;33620;52.340;5.984;2022-12-17T03:52:44;61.88;;;30.38;;
47860;SDS011;33620;52.340;5.984;2022-12-17T03:55:28;62.15;;;28.77;;
47860;SDS011;33620;52.340;5.984;2022-12-17T03:58:12;58.60;;;30.40;;
47860;SDS011;33620;52.340;5.984;2022-12-17T04:00:56;58.63;;;27.30;;
47860;SDS011;33620;52.340;5.984;2022-12-17T04:03:40;65.22;;;31.17;;
47860;SDS011;33620;52.340;5.984;2022-12-17T04:06:23;63.20;;;31.33;;
47860;SDS011;33620;52.340;5.984;2022-12-17T04:09:07;56.65;;;28.42;;
47860;SDS011;33620;52.340;5.984;2022-12-17T04:11:51;61.58;;;29.73;;
47860;SDS011;33620;52.340;5.984;2022-12-17T04:14:35;62.15;;;30.63;;
47860;SDS011;33620;52.340;5.984;2022-12-17T04:17:19;55.67;;;28.23;;
47860;SDS011;33620;52.340;5.984;2022-12-17T04:20:03;56.78;;;28.40;;
47860;SDS011;33620;52.340;5.984;2022-12-17T04:22:47;63.13;;;29.15;;
47860;SDS011;33620;52.340;5.984;2022-12-17T04:25:31;64.32;;;31.83;;
47860;SDS011;33620;52.340;5.984;2022-12-17T04:28:15;64.28;;;33.25;;
47860;SDS011;33620;52.340;5.984;2022-12-17T04:30:59;65.93;;;32.95;;
47860;SDS011;33620;52.340;5.984;2022-12-17T04:33:43;59.55;;;30.58;;
47860;SDS011;33620;52.340;5.984;2022-12-17T04:36:27;64.40;;;31.92;;
47860;SDS011;33620;52.340;5.984;2022-12-17T04:39:11;64.90;;;32.22;;
47860;SDS011;33620;52.340;5.984;2022-12-17T04:41:54;60.47;;;31.10;;
47860;SDS011;33620;52.340;5.984;2022-12-17T04:44:38;60.20;;;29.77;;
47860;SDS011;33620;52.340;5.984;2022-12-17T04:47:22;57.65;;;30.85;;
47860;SDS011;33620;52.340;5.984;2022-12-17T04:50:06;60.80;;;30.33;;
47860;SDS011;33620;52.340;5.984;2022-12-17T04:52:58;66.57;;;32.17;;
47860;SDS011;33620;52.340;5.984;2022-12-17T04:55:45;68.15;;;32.85;;
47860;SDS011;33620;52.340;5.984;2022-12-17T04:58:29;61.90;;;31.63;;
47860;SDS011;33620;52.340;5.984;2022-12-17T05:01:13;63.00;;;31.58;;
47860;SDS011;33620;52.340;5.984;2022-12-17T05:03:57;66.65;;;31.35;;
47860;SDS011;33620;52.340;5.984;2022-12-17T05:06:41;66.82;;;30.80;;
47860;SDS011;33620;52.340;5.984;2022-12-17T05:09:25;68.93;;;34.65;;
47860;SDS011;33620;52.340;5.984;2022-12-17T05:12:09;72.45;;;33.08;;
47860;SDS011;33620;52.340;5.984;2022-12-17T05:14:53;57.50;;;29.10;;
47860;SDS011;33620;52.340;5.984;2022-12-17T05:17:37;67.63;;;32.08;;
47860;SDS011;33620;52.340;5.984;2022-12-17T05:20:20;62.75;;;31.08;;
47860;SDS011;33620;52.340;5.984;2022-12-17T05:23:05;61.00;;;31.15;;
47860;SDS011;33620;52.340;5.984;2022-12-17T05:25:55;75.15;;;35.60;;
47860;SDS011;33620;52.340;5.984;2022-12-17T05:28:44;65.45;;;31.80;;
47860;SDS011;33620;52.340;5.984;2022-12-17T05:31:28;65.75;;;33.65;;
47860;SDS011;33620;52.340;5.984;2022-12-17T05:34:12;68.82;;;33.30;;
47860;SDS011;33620;52.340;5.984;2022-12-17T05:36:56;69.40;;;32.78;;
47860;SDS011;33620;52.340;5.984;2022-12-17T05:39:40;65.32;;;32.40;;
47860;SDS011;33620;52.340;5.984;2022-12-17T05:42:23;66.65;;;32.38;;
47860;SDS011;33620;52.340;5.984;2022-12-17T05:45:07;69.05;;;32.28;;
47860;SDS011;33620;52.340;5.984;2022-12-17T05:47:55;67.50;;;34.13;;
47860;SDS011;33620;52.340;5.984;2022-12-17T05:50:40;65.40;;;32.78;;
47860;SDS011;33620;52.340;5.984;2022-12-17T05:53:24;70.50;;;34.72;;
47860;SDS011;33620;52.340;5.984;2022-12-17T05:56:07;65.57;;;31.40;;
47860;SDS011;33620;52.340;5.984;2022-12-17T05:58:51;72.05;;;34.92;;
47860;SDS011;33620;52.340;5.984;2022-12-17T06:01:35;68.15;;;34.63;;
47860;SDS011;33620;52.340;5.984;2022-12-17T06:04:19;66.25;;;31.90;;
47860;SDS011;33620;52.340;5.984;2022-12-17T06:07:03;72.65;;;34.88;;
47860;SDS011;33620;52.340;5.984;2022-12-17T06:09:47;75.22;;;32.85;;
47860;SDS011;33620;52.340;5.984;2022-12-17T06:12:31;65.18;;;31.52;;
47860;SDS011;33620;52.340;5.984;2022-12-17T06:15:15;77.25;;;35.80;;
47860;SDS011;33620;52.340;5.984;2022-12-17T06:17:59;70.25;;;33.88;;
47860;SDS011;33620;52.340;5.984;2022-12-17T06:20:43;70.68;;;34.65;;
47860;SDS011;33620;52.340;5.984;2022-12-17T06:23:27;64.53;;;32.45;;
47860;SDS011;33620;52.340;5.984;2022-12-17T06:26:11;76.45;;;35.55;;
47860;SDS011;33620;52.340;5.984;2022-12-17T06:28:55;67.68;;;32.50;;
47860;SDS011;33620;52.340;5.984;2022-12-17T06:31:39;65.95;;;30.95;;
47860;SDS011;33620;52.340;5.984;2022-12-17T06:34:23;72.70;;;34.30;;
47860;SDS011;33620;52.340;5.984;2022-12-17T06:37:07;68.03;;;32.85;;
47860;SDS011;33620;52.340;5.984;2022-12-17T06:39:51;69.60;;;33.90;;
47860;SDS011;33620;52.340;5.984;2022-12-17T06:42:35;72.47;;;33.22;;
47860;SDS011;33620;52.340;5.984;2022-12-17T06:45:19;77.13;;;33.88;;
47860;SDS011;33620;52.340;5.984;2022-12-17T06:48:04;73.78;;;34.65;;
47860;SDS011;33620;52.340;5.984;2022-12-17T06:51:03;60.83;;;30.17;;
47860;SDS011;33620;52.340;5.984;2022-12-17T06:53:48;72.63;;;33.78;;
47860;SDS011;33620;52.340;5.984;2022-12-17T06:56:31;67.03;;;33.38;;
47860;SDS011;33620;52.340;5.984;2022-12-17T06:59:15;73.22;;;34.22;;
47860;SDS011;33620;52.340;5.984;2022-12-17T07:01:59;69.40;;;33.70;;
47860;SDS011;33620;52.340;5.984;2022-12-17T07:04:43;67.13;;;33.33;;
47860;SDS011;33620;52.340;5.984;2022-12-17T07:07:27;69.72;;;33.65;;
47860;SDS011;33620;52.340;5.984;2022-12-17T07:10:11;71.18;;;34.83;;
47860;SDS011;33620;52.340;5.984;2022-12-17T07:12:55;78.40;;;35.38;;
47860;SDS011;33620;52.340;5.984;2022-12-17T07:15:46;76.57;;;36.65;;
47860;SDS011;33620;52.340;5.984;2022-12-17T07:18:29;75.22;;;35.65;;
47860;SDS011;33620;52.340;5.984;2022-12-17T07:21:13;76.60;;;35.97;;
47860;SDS011;33620;52.340;5.984;2022-12-17T07:23:57;82.45;;;36.72;;
47860;SDS011;33620;52.340;5.984;2022-12-17T07:26:41;75.13;;;34.33;;
47860;SDS011;33620;52.340;5.984;2022-12-17T07:29:25;80.50;;;36.42;;
47860;SDS011;33620;52.340;5.984;2022-12-17T07:32:09;80.40;;;36.40;;
47860;SDS011;33620;52.340;5.984;2022-12-17T07:34:56;79.95;;;35.22;;
47860;SDS011;33620;52.340;5.984;2022-12-17T07:37:40;84.70;;;38.78;;
47860;SDS011;33620;52.340;5.984;2022-12-17T07:40:24;84.05;;;38.55;;
47860;SDS011;33620;52.340;5.984;2022-12-17T07:43:08;81.22;;;37.45;;
47860;SDS011;33620;52.340;5.984;2022-12-17T07:45:54;79.63;;;37.25;;
47860;SDS011;33620;52.340;5.984;2022-12-17T07:48:37;78.65;;;39.13;;
47860;SDS011;33620;52.340;5.984;2022-12-17T07:51:21;75.30;;;36.67;;
47860;SDS011;33620;52.340;5.984;2022-12-17T07:54:05;90.53;;;39.55;;
47860;SDS011;33620;52.340;5.984;2022-12-17T07:56:49;78.45;;;36.03;;
47860;SDS011;33620;52.340;5.984;2022-12-17T07:59:33;80.60;;;37.00;;
47860;SDS011;33620;52.340;5.984;2022-12-17T08:02:17;79.50;;;37.13;;
47860;SDS011;33620;52.340;5.984;2022-12-17T08:05:01;78.20;;;37.05;;
47860;SDS011;33620;52.340;5.984;2022-12-17T08:07:45;83.90;;;38.42;;
47860;SDS011;33620;52.340;5.984;2022-12-17T08:10:29;82.47;;;39.25;;
47860;SDS011;33620;52.340;5.984;2022-12-17T08:13:13;79.25;;;36.83;;
47860;SDS011;33620;52.340;5.984;2022-12-17T08:15:56;81.25;;;37.53;;
47860;SDS011;33620;52.340;5.984;2022-12-17T08:18:40;80.18;;;38.22;;
47860;SDS011;33620;52.340;5.984;2022-12-17T08:21:24;85.82;;;39.25;;
47860;SDS011;33620;52.340;5.984;2022-12-17T08:24:08;83.95;;;39.67;;
47860;SDS011;33620;52.340;5.984;2022-12-17T08:26:52;85.95;;;40.60;;
47860;SDS011;33620;52.340;5.984;2022-12-17T08:29:36;76.18;;;37.58;;
47860;SDS011;33620;52.340;5.984;2022-12-17T08:32:20;75.50;;;38.53;;
47860;SDS011;33620;52.340;5.984;2022-12-17T08:35:05;84.53;;;39.30;;
47860;SDS011;33620;52.340;5.984;2022-12-17T08:37:49;85.45;;;38.58;;
47860;SDS011;33620;52.340;5.984;2022-12-17T08:40:33;82.22;;;39.08;;
47860;SDS011;33620;52.340;5.984;2022-12-17T08:43:17;80.43;;;37.83;;
47860;SDS011;33620;52.340;5.984;2022-12-17T08:46:01;77.30;;;38.45;;
47860;SDS011;33620;52.340;5.984;2022-12-17T08:48:45;84.05;;;39.85;;
47860;SDS011;33620;52.340;5.984;2022-12-17T08:51:28;82.85;;;39.17;;
47860;SDS011;33620;52.340;5.984;2022-12-17T08:54:12;80.05;;;37.22;;
47860;SDS011;33620;52.340;5.984;2022-12-17T08:56:56;85.60;;;39.50;;
47860;SDS011;33620;52.340;5.984;2022-12-17T08:59:40;85.28;;;40.92;;
47860;SDS011;33620;52.340;5.984;2022-12-17T09:02:24;80.20;;;39.33;;
47860;SDS011;33620;52.340;5.984;2022-12-17T09:05:08;85.90;;;39.08;;
47860;SDS011;33620;52.340;5.984;2022-12-17T09:07:59;82.75;;;39.60;;
47860;SDS011;33620;52.340;5.984;2022-12-17T09:10:44;79.10;;;37.33;;
47860;SDS011;33620;52.340;5.984;2022-12-17T09:13:28;84.82;;;39.33;;
47860;SDS011;33620;52.340;5.984;2022-12-17T09:16:12;82.30;;;39.65;;
47860;SDS011;33620;52.340;5.984;2022-12-17T09:18:56;81.88;;;37.95;;
47860;SDS011;33620;52.340;5.984;2022-12-17T09:21:40;75.35;;;36.97;;
47860;SDS011;33620;52.340;5.984;2022-12-17T09:24:24;81.75;;;39.63;;
47860;SDS011;33620;52.340;5.984;2022-12-17T09:27:08;82.03;;;38.47;;
47860;SDS011;33620;52.340;5.984;2022-12-17T09:29:52;82.90;;;38.10;;
47860;SDS011;33620;52.340;5.984;2022-12-17T09:32:36;86.10;;;39.38;;
47860;SDS011;33620;52.340;5.984;2022-12-17T09:35:20;79.07;;;39.20;;
47860;SDS011;33620;52.340;5.984;2022-12-17T09:38:03;77.95;;;38.13;;
47860;SDS011;33620;52.340;5.984;2022-12-17T09:40:48;86.88;;;39.08;;
47860;SDS011;33620;52.340;5.984;2022-12-17T09:46:48;80.38;;;40.05;;
47860;SDS011;33620;52.340;5.984;2022-12-17T09:49:37;87.22;;;39.88;;
47860;SDS011;33620;52.340;5.984;2022-12-17T09:52:22;81.28;;;37.80;;
47860;SDS011;33620;52.340;5.984;2022-12-17T09:55:18;78.93;;;39.45;;
47860;SDS011;33620;52.340;5.984;2022-12-17T09:58:27;85.03;;;40.70;;
47860;SDS011;33620;52.340;5.984;2022-12-17T10:01:16;85.10;;;42.35;;
47860;SDS011;33620;52.340;5.984;2022-12-17T10:04:06;85.00;;;42.50;;
47860;SDS011;33620;52.340;5.984;2022-12-17T10:06:56;84.72;;;40.10;;
47860;SDS011;33620;52.340;5.984;2022-12-17T10:09:40;83.65;;;40.03;;
47860;SDS011;33620;52.340;5.984;2022-12-17T10:12:24;90.75;;;41.72;;
47860;SDS011;33620;52.340;5.984;2022-12-17T10:15:11;81.38;;;38.42;;
47860;SDS011;33620;52.340;5.984;2022-12-17T10:17:58;81.97;;;39.33;;
47860;SDS011;33620;52.340;5.984;2022-12-17T10:20:52;80.75;;;39.08;;
47860;SDS011;33620;52.340;5.984;2022-12-17T10:23:40;86.63;;;40.20;;
47860;SDS011;33620;52.340;5.984;2022-12-17T10:26:28;92.00;;;40.45;;
47860;SDS011;33620;52.340;5.984;2022-12-17T10:29:21;95.45;;;42.70;;
47860;SDS011;33620;52.340;5.984;2022-12-17T10:32:08;90.40;;;41.20;;
47860;SDS011;33620;52.340;5.984;2022-12-17T10:34:54;85.82;;;42.05;;
47860;SDS011;33620;52.340;5.984;2022-12-17T10:37:38;92.55;;;43.05;;
47860;SDS011;33620;52.340;5.984;2022-12-17T10:40:27;94.13;;;42.10;;
47860;SDS011;33620;52.340;5.984;2022-12-17T10:43:47;93.80;;;43.33;;
47860;SDS011;33620;52.340;5.984;2022-12-17T10:46:29;91.55;;;43.50;;
47860;SDS011;33620;52.340;5.984;2022-12-17T10:49:16;95.90;;;45.38;;
47860;SDS011;33620;52.340;5.984;2022-12-17T10:52:06;99.82;;;45.53;;
47860;SDS011;33620;52.340;5.984;2022-12-17T10:55:22;86.93;;;41.80;;
47860;SDS011;33620;52.340;5.984;2022-12-17T11:00:57;104.43;;;48.25;;
47860;SDS011;33620;52.340;5.984;2022-12-17T11:03:49;93.68;;;44.47;;
47860;SDS011;33620;52.340;5.984;2022-12-17T11:06:39;101.45;;;47.65;;
47860;SDS011;33620;52.340;5.984;2022-12-17T11:12:30;94.18;;;45.00;;
47860;SDS011;33620;52.340;5.984;2022-12-17T11:15:24;111.47;;;49.67;;
47860;SDS011;33620;52.340;5.984;2022-12-17T11:18:26;106.75;;;48.97;;
47860;SDS011;33620;52.340;5.984;2022-12-17T11:21:20;97.77;;;46.37;;
47860;SDS011;33620;52.340;5.984;2022-12-17T11:24:10;105.65;;;47.85;;
47860;SDS011;33620;52.340;5.984;2022-12-17T11:27:01;106.03;;;49.70;;
47860;SDS011;33620;52.340;5.984;2022-12-17T11:29:49;107.75;;;49.05;;
47860;SDS011;33620;52.340;5.984;2022-12-17T11:35:46;104.15;;;47.30;;
47860;SDS011;33620;52.340;5.984;2022-12-17T11:38:44;98.85;;;48.83;;
47860;SDS011;33620;52.340;5.984;2022-12-17T11:44:59;99.80;;;49.10;;
47860;SDS011;33620;52.340;5.984;2022-12-17T11:47:57;101.03;;;47.63;;
47860;SDS011;33620;52.340;5.984;2022-12-17T11:50:55;108.47;;;48.70;;
47860;SDS011;33620;52.340;5.984;2022-12-17T11:56:40;101.40;;;46.03;;
47860;SDS011;33620;52.340;5.984;2022-12-17T11:59:46;98.60;;;46.42;;
47860;SDS011;33620;52.340;5.984;2022-12-17T12:03:21;100.00;;;47.25;;
47860;SDS011;33620;52.340;5.984;2022-12-17T12:06:19;106.63;;;48.17;;
47860;SDS011;33620;52.340;5.984;2022-12-17T12:09:21;97.30;;;44.63;;
47860;SDS011;33620;52.340;5.984;2022-12-17T12:15:20;98.63;;;46.75;;
47860;SDS011;33620;52.340;5.984;2022-12-17T12:18:09;101.38;;;44.10;;
47860;SDS011;33620;52.340;5.984;2022-12-17T12:24:05;101.53;;;47.72;;
47860;SDS011;33620;52.340;5.984;2022-12-17T12:30:04;93.13;;;45.63;;
47860;SDS011;33620;52.340;5.984;2022-12-17T12:35:59;93.95;;;45.03;;
47860;SDS011;33620;52.340;5.984;2022-12-17T12:38:46;95.60;;;44.70;;
47860;SDS011;33620;52.340;5.984;2022-12-17T12:48:10;91.03;;;44.95;;
47860;SDS011;33620;52.340;5.984;2022-12-17T12:54:24;91.57;;;42.90;;
47860;SDS011;33620;52.340;5.984;2022-12-17T12:57:40;84.07;;;40.28;;
47860;SDS011;33620;52.340;5.984;2022-12-17T13:00:38;92.80;;;42.28;;
47860;SDS011;33620;52.340;5.984;2022-12-17T13:03:36;86.18;;;42.22;;
47860;SDS011;33620;52.340;5.984;2022-12-17T13:11:46;89.45;;;41.97;;
47860;SDS011;33620;52.340;5.984;2022-12-17T13:14:32;93.33;;;44.07;;
47860;SDS011;33620;52.340;5.984;2022-12-17T13:24:44;87.00;;;42.30;;
47860;SDS011;33620;52.340;5.984;2022-12-17T13:29:55;84.68;;;40.38;;
47860;SDS011;33620;52.340;5.984;2022-12-17T13:41:18;90.22;;;43.50;;
47860;SDS011;33620;52.340;5.984;2022-12-17T13:43:49;92.72;;;42.75;;
47860;SDS011;33620;52.340;5.984;2022-12-17T13:46:24;93.60;;;42.80;;
47860;SDS011;33620;52.340;5.984;2022-12-17T13:48:55;85.07;;;41.03;;
47860;SDS011;33620;52.340;5.984;2022-12-17T13:51:24;91.22;;;42.10;;
47860;SDS011;33620;52.340;5.984;2022-12-17T13:53:58;82.05;;;39.47;;
47860;SDS011;33620;52.340;5.984;2022-12-17T13:56:29;92.50;;;43.95;;
47860;SDS011;33620;52.340;5.984;2022-12-17T13:58:57;96.15;;;45.25;;
47860;SDS011;33620;52.340;5.984;2022-12-17T14:01:26;95.25;;;45.13;;
47860;SDS011;33620;52.340;5.984;2022-12-17T14:03:53;95.78;;;45.65;;
47860;SDS011;33620;52.340;5.984;2022-12-17T14:06:20;86.20;;;42.88;;
47860;SDS011;33620;52.340;5.984;2022-12-17T14:08:48;96.85;;;47.13;;
47860;SDS011;33620;52.340;5.984;2022-12-17T14:11:15;101.28;;;45.35;;
47860;SDS011;33620;52.340;5.984;2022-12-17T14:13:59;100.28;;;47.35;;
47860;SDS011;33620;52.340;5.984;2022-12-17T14:16:26;92.68;;;44.35;;
47860;SDS011;33620;52.340;5.984;2022-12-17T14:18:52;92.13;;;44.15;;
47860;SDS011;33620;52.340;5.984;2022-12-17T14:21:19;89.55;;;42.38;;
47860;SDS011;33620;52.340;5.984;2022-12-17T14:23:46;95.38;;;44.65;;
47860;SDS011;33620;52.340;5.984;2022-12-17T14:26:14;89.80;;;42.72;;
47860;SDS011;33620;52.340;5.984;2022-12-17T14:31:22;91.63;;;43.95;;
47860;SDS011;33620;52.340;5.984;2022-12-17T14:34:10;90.30;;;43.50;;
47860;SDS011;33620;52.340;5.984;2022-12-17T14:36:36;92.30;;;42.58;;
47860;SDS011;33620;52.340;5.984;2022-12-17T14:39:05;88.18;;;40.40;;
47860;SDS011;33620;52.340;5.984;2022-12-17T14:41:43;93.90;;;44.65;;
47860;SDS011;33620;52.340;5.984;2022-12-17T14:44:28;99.70;;;44.53;;
47860;SDS011;33620;52.340;5.984;2022-12-17T14:49:57;95.93;;;44.95;;
47860;SDS011;33620;52.340;5.984;2022-12-17T14:58:16;92.97;;;43.90;;
47860;SDS011;33620;52.340;5.984;2022-12-17T15:03:31;93.03;;;41.80;;
47860;SDS011;33620;52.340;5.984;2022-12-17T15:06:02;89.55;;;44.38;;
47860;SDS011;33620;52.340;5.984;2022-12-17T15:08:33;96.85;;;43.63;;
47860;SDS011;33620;52.340;5.984;2022-12-17T15:11:06;95.93;;;42.65;;
47860;SDS011;33620;52.340;5.984;2022-12-17T15:13:33;86.80;;;40.13;;
47860;SDS011;33620;52.340;5.984;2022-12-17T15:15:58;98.72;;;45.80;;
47860;SDS011;33620;52.340;5.984;2022-12-17T15:18:24;99.88;;;44.80;;
47860;SDS011;33620;52.340;5.984;2022-12-17T15:20:49;92.65;;;44.05;;
47860;SDS011;33620;52.340;5.984;2022-12-17T15:23:15;95.47;;;42.42;;
47860;SDS011;33620;52.340;5.984;2022-12-17T15:25:46;93.53;;;43.10;;
47860;SDS011;33620;52.340;5.984;2022-12-17T15:28:13;99.13;;;43.03;;
47860;SDS011;33620;52.340;5.984;2022-12-17T15:30:38;101.90;;;47.17;;
47860;SDS011;33620;52.340;5.984;2022-12-17T15:33:04;97.78;;;42.13;;
47860;SDS011;33620;52.340;5.984;2022-12-17T15:35:30;87.38;;;40.90;;
47860;SDS011;33620;52.340;5.984;2022-12-17T15:37:56;95.00;;;43.22;;
47860;SDS011;33620;52.340;5.984;2022-12-17T15:40:22;100.70;;;45.83;;
47860;SDS011;33620;52.340;5.984;2022-12-17T15:42:47;92.65;;;42.25;;
47860;SDS011;33620;52.340;5.984;2022-12-17T15:45:31;91.50;;;43.22;;
47860;SDS011;33620;52.340;5.984;2022-12-17T15:47:57;104.70;;;45.08;;
47860;SDS011;33620;52.340;5.984;2022-12-17T15:50:22;98.75;;;44.47;;
47860;SDS011;33620;52.340;5.984;2022-12-17T15:52:47;87.93;;;40.63;;
47860;SDS011;33620;52.340;5.984;2022-12-17T15:55:13;95.13;;;42.58;;
47860;SDS011;33620;52.340;5.984;2022-12-17T15:57:39;100.47;;;44.55;;
47860;SDS011;33620;52.340;5.984;2022-12-17T16:00:05;91.30;;;41.05;;
47860;SDS011;33620;52.340;5.984;2022-12-17T16:02:31;92.45;;;44.67;;
47860;SDS011;33620;52.340;5.984;2022-12-17T16:04:56;92.50;;;42.47;;
47860;SDS011;33620;52.340;5.984;2022-12-17T16:07:21;99.35;;;43.83;;
47860;SDS011;33620;52.340;5.984;2022-12-17T16:09:47;97.82;;;43.80;;
47860;SDS011;33620;52.340;5.984;2022-12-17T16:12:12;94.07;;;41.05;;
47860;SDS011;33620;52.340;5.984;2022-12-17T16:14:37;82.75;;;37.75;;
47860;SDS011;33620;52.340;5.984;2022-12-17T16:17:03;101.03;;;42.45;;
47860;SDS011;33620;52.340;5.984;2022-12-17T16:19:28;94.95;;;40.63;;
47860;SDS011;33620;52.340;5.984;2022-12-17T16:21:53;87.32;;;41.25;;
47860;SDS011;33620;52.340;5.984;2022-12-17T16:24:19;94.22;;;40.97;;
47860;SDS011;33620;52.340;5.984;2022-12-17T16:26:44;99.65;;;44.28;;
47860;SDS011;33620;52.340;5.984;2022-12-17T16:29:09;108.95;;;44.90;;
47860;SDS011;33620;52.340;5.984;2022-12-17T16:31:35;93.00;;;42.28;;
47860;SDS011;33620;52.340;5.984;2022-12-17T16:34:01;96.85;;;42.10;;
47860;SDS011;33620;52.340;5.984;2022-12-17T16:36:26;98.78;;;43.45;;
47860;SDS011;33620;52.340;5.984;2022-12-17T16:38:53;96.97;;;43.28;;
47860;SDS011;33620;52.340;5.984;2022-12-17T16:41:19;97.25;;;43.67;;
47860;SDS011;33620;52.340;5.984;2022-12-17T16:43:45;107.55;;;44.78;;
47860;SDS011;33620;52.340;5.984;2022-12-17T16:49:18;95.93;;;42.08;;
47860;SDS011;33620;52.340;5.984;2022-12-17T16:51:47;102.57;;;44.83;;
47860;SDS011;33620;52.340;5.984;2022-12-17T16:54:17;98.53;;;43.47;;
47860;SDS011;33620;52.340;5.984;2022-12-17T16:56:45;100.85;;;42.63;;
47860;SDS011;33620;52.340;5.984;2022-12-17T16:59:11;94.35;;;42.30;;
47860;SDS011;33620;52.340;5.984;2022-12-17T17:01:39;97.15;;;42.35;;
47860;SDS011;33620;52.340;5.984;2022-12-17T17:04:06;94.20;;;42.10;;
47860;SDS011;33620;52.340;5.984;2022-12-17T17:06:36;93.22;;;40.72;;
47860;SDS011;33620;52.340;5.984;2022-12-17T17:09:06;95.43;;;42.35;;
47860;SDS011;33620;52.340;5.984;2022-12-17T17:11:32;92.43;;;42.72;;
47860;SDS011;33620;52.340;5.984;2022-12-17T17:13:58;93.57;;;41.30;;
47860;SDS011;33620;52.340;5.984;2022-12-17T17:16:24;100.35;;;44.28;;
47860;SDS011;33620;52.340;5.984;2022-12-17T17:18:50;89.05;;;42.17;;
47860;SDS011;33620;52.340;5.984;2022-12-17T17:21:30;98.07;;;41.83;;